createdAt,value
2022-11-06T00:03:22.632Z,99446.97
2022-11-06T00:09:24.583Z,99437.44
2022-11-06T00:15:26.585Z,99444.81
2022-11-06T00:21:30.732Z,99440.97
2022-11-06T00:27:35.292Z,99435.84
2022-11-06T00:33:37.491Z,99440.88
2022-11-06T00:39:39.411Z,99447.53
2022-11-06T00:45:41.333Z,99437.69
2022-11-06T00:51:43.258Z,99430.19
2022-11-06T00:57:45.130Z,99431.53
2022-11-06T01:03:52.151Z,99437.34
2022-11-06T01:09:54.077Z,99447.31
2022-11-06T01:15:55.955Z,99440.53
2022-11-06T01:22:00.983Z,99423.38
2022-11-06T01:28:02.931Z,99435.03
2022-11-06T01:34:05.597Z,99424.72
2022-11-06T01:40:08.482Z,99426.38
2022-11-06T01:46:11.121Z,99418.38
2022-11-06T01:52:15.331Z,99425.34
2022-11-06T01:58:21.402Z,99418.38
2022-11-06T02:04:38.560Z,99414.06
2022-11-06T02:10:41.941Z,99414.75
2022-11-06T02:17:00.768Z,99412.22
2022-11-06T02:23:50.770Z,99403.09
2022-11-06T02:30:10.057Z,99397.78
2022-11-06T02:36:20.178Z,99394.63
2022-11-06T02:42:29.192Z,99384.97
2022-11-06T02:48:40.124Z,99383.97
2022-11-06T02:55:09.017Z,99374.97
2022-11-06T03:01:34.975Z,99372.13
2022-11-06T03:07:47.283Z,99365.72
2022-11-06T03:14:17.023Z,99358.38
2022-11-06T03:20:50.349Z,99366.69
2022-11-06T03:26:53.523Z,99349.88
2022-11-06T03:33:11.658Z,99358.44
2022-11-06T03:39:21.729Z,99372.44
2022-11-06T03:45:30.947Z,99338.47
2022-11-06T03:51:59.280Z,99345.13
2022-11-06T03:58:09.745Z,99362.25
2022-11-06T04:04:24.023Z,99365.13
2022-11-06T04:10:44.814Z,99356.00
2022-11-06T04:16:52.757Z,99352.50
2022-11-06T04:23:39.493Z,99352.31
2022-11-06T04:30:04.161Z,99352.03
2022-11-06T04:36:18.470Z,99356.59
2022-11-06T04:43:10.396Z,99353.72
2022-11-06T04:49:14.211Z,99361.91
2022-11-06T04:55:16.103Z,99362.94
2022-11-06T05:01:29.134Z,99360.00
2022-11-06T05:07:33.115Z,99358.00
2022-11-06T05:13:36.235Z,99339.22
2022-11-06T05:19:38.156Z,99340.94
2022-11-06T05:25:40.584Z,99338.31
2022-11-06T05:39:27.041Z,99347.50
2022-11-06T05:45:29.171Z,99349.78
2022-11-06T05:51:31.154Z,99335.91
2022-11-06T05:57:33.169Z,99316.13
2022-11-06T06:03:35.079Z,99304.03
2022-11-06T06:09:37.105Z,99320.22
2022-11-06T06:15:43.514Z,99324.84
2022-11-06T06:21:45.363Z,99306.94
2022-11-06T06:27:47.480Z,99303.66
2022-11-06T06:33:50.999Z,99294.59
2022-11-06T06:39:52.887Z,99297.91
2022-11-06T06:46:01.879Z,99278.88
2022-11-06T06:52:04.250Z,99295.38
2022-11-06T06:58:06.154Z,99309.00
2022-11-06T07:04:10.658Z,99307.72
2022-11-06T07:10:12.766Z,99306.13
2022-11-06T07:16:14.766Z,99304.06
2022-11-06T07:22:18.352Z,99296.06
2022-11-06T07:28:22.228Z,99300.78
2022-11-06T07:34:24.131Z,99277.78
2022-11-06T07:40:26.051Z,99286.84
2022-11-06T07:46:28.071Z,99279.78
2022-11-06T07:52:30.274Z,99284.56
2022-11-06T07:58:33.861Z,99279.44
2022-11-06T08:04:35.792Z,99283.63
2022-11-06T08:10:40.482Z,99283.72
2022-11-06T08:16:42.902Z,99301.59
2022-11-06T08:22:44.898Z,99274.28
2022-11-06T08:28:46.767Z,99281.97
2022-11-06T08:34:48.630Z,99269.41
2022-11-06T08:40:53.672Z,99252.84
2022-11-06T08:46:55.904Z,99264.75
2022-11-06T08:52:59.608Z,99262.94
2022-11-06T08:59:01.560Z,99260.06
2022-11-06T09:05:03.969Z,99250.63
2022-11-06T09:11:10.754Z,99249.66
2022-11-06T09:17:15.233Z,99258.09
2022-11-06T09:23:17.390Z,99243.84
2022-11-06T09:29:19.393Z,99245.34
2022-11-06T09:35:24.104Z,99236.66
2022-11-06T09:41:34.680Z,99232.94
2022-11-06T09:47:43.855Z,99224.88
2022-11-06T09:54:20.557Z,99220.53
2022-11-06T10:00:23.294Z,99212.69
2022-11-06T10:06:26.278Z,99212.88
2022-11-06T10:12:33.571Z,99201.78
2022-11-06T10:18:49.159Z,99201.13
2022-11-06T10:25:23.532Z,99192.06
2022-11-06T10:32:06.827Z,99177.00
2022-11-06T10:38:18.254Z,99165.00
2022-11-06T10:44:32.185Z,99162.53
2022-11-06T10:51:02.409Z,99141.47
2022-11-06T10:57:22.832Z,99135.91
2022-11-06T11:03:39.814Z,99140.00
2022-11-06T11:09:49.542Z,99133.31
2022-11-06T11:15:51.449Z,99120.91
2022-11-06T11:21:57.911Z,99110.41
2022-11-06T11:28:04.637Z,99084.97
2022-11-06T11:34:28.968Z,99072.44
2022-11-06T11:40:35.800Z,99063.63
2022-11-06T11:46:49.808Z,99038.94
2022-11-06T11:53:04.380Z,99028.66
2022-11-06T11:59:27.102Z,99018.25
2022-11-06T12:05:38.544Z,99013.69
2022-11-06T12:11:43.780Z,99008.66
2022-11-06T12:18:02.326Z,98999.53
2022-11-06T12:24:20.128Z,98981.97
2022-11-06T12:30:22.158Z,98968.56
2022-11-06T12:36:28.924Z,98956.22
2022-11-06T12:42:34.710Z,98941.47
2022-11-06T12:49:22.254Z,98924.75
2022-11-06T12:55:34.879Z,98919.56
2022-11-06T13:02:14.487Z,98890.91
2022-11-06T13:08:43.202Z,98907.75
2022-11-06T13:15:07.156Z,98884.75
2022-11-06T13:21:36.716Z,98889.09
2022-11-06T13:27:49.564Z,98887.97
2022-11-06T13:33:56.510Z,98868.00
2022-11-06T13:40:25.599Z,98854.03
2022-11-06T13:46:47.388Z,98839.63
2022-11-06T13:53:11.135Z,98836.66
2022-11-06T13:59:23.606Z,98821.75
2022-11-06T14:05:44.480Z,98808.19
2022-11-06T14:11:54.737Z,98801.47
2022-11-06T14:18:01.651Z,98784.38
2022-11-06T14:24:28.753Z,98782.50
2022-11-06T14:30:57.688Z,98770.28
2022-11-06T14:36:52.445Z,98782.66
2022-11-06T14:42:54.409Z,98770.47
2022-11-06T14:49:15.756Z,98771.63
2022-11-06T14:55:42.313Z,98781.25
2022-11-06T15:02:34.111Z,98788.47
2022-11-06T15:08:48.511Z,98801.06
2022-11-06T15:14:50.398Z,98809.25
2022-11-06T15:21:00.555Z,98803.03
2022-11-06T15:27:30.477Z,98800.03
2022-11-06T15:33:41.315Z,98790.38
2022-11-06T15:40:01.271Z,98793.66
2022-11-06T15:46:12.774Z,98796.06
2022-11-06T15:52:18.619Z,98784.53
2022-11-06T15:58:23.065Z,98783.34
2022-11-06T16:04:26.766Z,98778.22
2022-11-06T16:10:28.957Z,98753.50
2022-11-06T16:16:45.828Z,98733.91
2022-11-06T16:22:47.790Z,98726.72
2022-11-06T16:29:29.230Z,98726.94
2022-11-06T16:35:37.612Z,98737.03
2022-11-06T16:57:19.334Z,98744.91
2022-11-06T17:03:22.995Z,98743.75
2022-11-06T17:09:36.981Z,98742.69
2022-11-06T17:15:39.187Z,98747.56
2022-11-06T17:21:41.117Z,98751.56
2022-11-06T17:27:43.085Z,98758.84
2022-11-06T17:33:45.676Z,98756.88
2022-11-06T17:39:48.807Z,98753.16
2022-11-06T17:45:50.992Z,98755.19
2022-11-06T17:52:00.219Z,98746.47
2022-11-06T18:04:34.270Z,98712.09
2022-11-06T18:10:36.331Z,98690.25
2022-11-06T18:16:43.731Z,98687.97
2022-11-06T18:22:46.077Z,98689.53
2022-11-06T18:28:49.146Z,98674.81
2022-11-06T18:34:51.040Z,98672.38
2022-11-06T18:40:52.960Z,98666.47
2022-11-06T18:46:55.285Z,98667.69
2022-11-06T18:52:58.398Z,98670.16
2022-11-06T18:59:00.668Z,98658.66
2022-11-06T19:05:02.792Z,98653.06
2022-11-06T19:11:07.241Z,98646.06
2022-11-06T19:17:09.228Z,98650.13
2022-11-06T19:23:14.741Z,98649.75
2022-11-06T19:29:17.611Z,98652.25
2022-11-06T19:35:19.991Z,98662.28
2022-11-06T19:41:21.944Z,98658.63
2022-11-06T19:47:23.928Z,98667.91
2022-11-06T19:53:26.678Z,98677.78
2022-11-06T19:59:28.589Z,98687.63
2022-11-06T20:06:07.613Z,98662.13
2022-11-06T20:13:10.772Z,98658.63
2022-11-06T20:19:12.690Z,98637.66
2022-11-06T20:25:14.965Z,98652.28
2022-11-06T20:37:34.800Z,98629.41
2022-11-06T20:43:37.019Z,98638.03
2022-11-06T20:49:39.427Z,98614.59
2022-11-06T20:55:41.302Z,98611.81
2022-11-06T21:01:43.541Z,98606.91
2022-11-06T21:07:45.565Z,98608.16
2022-11-06T21:13:50.207Z,98597.81
2022-11-06T21:19:52.117Z,98595.84
2022-11-06T21:25:54.063Z,98605.00
2022-11-06T21:31:55.996Z,98618.31
2022-11-06T21:37:57.962Z,98632.75
2022-11-06T21:44:01.786Z,98633.13
2022-11-06T21:50:03.834Z,98633.13
2022-11-06T21:56:09.310Z,98632.13
2022-11-06T22:02:11.398Z,98635.41
2022-11-06T22:08:16.367Z,98628.22
2022-11-06T22:14:18.539Z,98636.66
2022-11-06T22:20:20.577Z,98651.06
2022-11-06T22:32:36.861Z,98643.63
2022-11-06T22:38:40.217Z,98637.25
2022-11-06T22:44:42.169Z,98630.97
2022-11-06T22:50:44.359Z,98639.38
2022-11-06T22:56:46.271Z,98641.00
2022-11-06T23:02:49.125Z,98645.50
2022-11-06T23:08:52.157Z,98654.56
2022-11-06T23:14:54.081Z,98666.00
2022-11-06T23:20:55.976Z,98680.44
2022-11-06T23:26:57.865Z,98671.75
2022-11-06T23:33:00.148Z,98679.19
2022-11-06T23:39:05.364Z,98689.66
2022-11-06T23:45:26.583Z,98686.94
2022-11-06T23:51:28.541Z,98700.50
2022-11-06T23:57:30.570Z,98699.94
